createdAt,value
2018-01-15T00:01:32.996Z,77.98
2018-01-15T00:04:00.619Z,78.19
2018-01-15T00:06:28.132Z,78.13
2018-01-15T00:08:55.753Z,78.16
2018-01-15T00:11:23.268Z,77.97
2018-01-15T00:13:50.808Z,77.99
2018-01-15T00:16:18.335Z,78.14
2018-01-15T00:18:45.881Z,78.09
2018-01-15T00:21:13.404Z,78.19
2018-01-15T00:23:40.916Z,78.29
2018-01-15T00:26:08.440Z,78.32
2018-01-15T00:28:35.996Z,78.30
2018-01-15T00:31:03.572Z,78.22
2018-01-15T00:33:31.095Z,78.20
2018-01-15T00:35:58.613Z,78.12
2018-01-15T00:38:26.169Z,78.25
2018-01-15T00:40:53.784Z,78.33
2018-01-15T00:43:21.396Z,78.33
2018-01-15T00:45:48.904Z,78.14
2018-01-15T00:48:16.440Z,78.46
2018-01-15T00:50:43.957Z,78.49
2018-01-15T00:53:11.484Z,78.58
2018-01-15T00:55:39.089Z,78.61
2018-01-15T00:58:06.623Z,78.50
2018-01-15T01:00:34.214Z,78.65
2018-01-15T01:03:01.723Z,78.74
2018-01-15T01:05:29.256Z,78.48
2018-01-15T01:07:56.772Z,78.57
2018-01-15T01:10:24.347Z,78.79
2018-01-15T01:12:51.860Z,78.79
2018-01-15T01:15:19.368Z,78.84
2018-01-15T01:17:46.888Z,78.92
2018-01-15T01:20:14.468Z,78.85
2018-01-15T01:22:41.984Z,78.88
2018-01-15T01:25:09.591Z,78.95
2018-01-15T01:27:37.172Z,78.97
2018-01-15T01:30:04.712Z,79.04
2018-01-15T01:32:32.289Z,79.13
2018-01-15T01:34:59.814Z,79.08
2018-01-15T01:37:27.336Z,79.05
2018-01-15T01:39:54.975Z,79.05
2018-01-15T01:42:22.497Z,78.98
2018-01-15T01:44:50.039Z,79.06
2018-01-15T01:47:17.592Z,78.90
2018-01-15T01:49:45.124Z,79.05
2018-01-15T01:52:12.636Z,79.22
2018-01-15T01:54:40.153Z,78.93
2018-01-15T01:57:07.779Z,78.96
2018-01-15T01:59:35.291Z,78.98
2018-01-15T02:02:02.801Z,78.97
2018-01-15T02:04:30.344Z,79.06
2018-01-15T02:06:57.852Z,79.20
2018-01-15T02:09:25.468Z,79.04
2018-01-15T02:11:53.028Z,78.95
2018-01-15T02:14:20.560Z,78.89
2018-01-15T02:16:48.088Z,78.94
2018-01-15T02:19:15.614Z,79.05
2018-01-15T02:21:43.132Z,79.01
2018-01-15T02:24:10.660Z,78.94
2018-01-15T02:26:38.264Z,79.04
2018-01-15T02:29:05.854Z,79.03
2018-01-15T02:31:33.381Z,79.34
2018-01-15T02:34:00.903Z,79.18
2018-01-15T02:36:28.422Z,79.21
2018-01-15T02:38:56.008Z,79.25
2018-01-15T02:41:23.538Z,79.42
2018-01-15T02:43:51.057Z,79.50
2018-01-15T02:46:18.607Z,79.60
2018-01-15T02:48:46.123Z,79.48
2018-01-15T02:51:13.632Z,79.36
2018-01-15T02:53:41.220Z,79.43
2018-01-15T02:56:08.737Z,79.47
2018-01-15T02:58:36.256Z,79.44
2018-01-15T03:01:03.764Z,79.42
2018-01-15T03:03:31.285Z,79.35
2018-01-15T03:05:58.804Z,79.42
2018-01-15T03:08:26.396Z,79.40
2018-01-15T03:10:53.923Z,79.52
2018-01-15T03:13:21.530Z,79.48
2018-01-15T03:15:49.060Z,79.43
2018-01-15T03:18:16.636Z,79.52
2018-01-15T03:20:44.162Z,79.59
2018-01-15T03:23:11.693Z,79.54
2018-01-15T03:25:39.228Z,79.61
2018-01-15T03:28:06.772Z,79.61
2018-01-15T03:30:34.336Z,79.45
2018-01-15T03:33:01.861Z,79.55
2018-01-15T03:35:29.394Z,79.45
2018-01-15T03:37:56.993Z,79.51
2018-01-15T03:40:24.553Z,79.64
2018-01-15T03:42:52.067Z,79.49
2018-01-15T03:45:19.580Z,79.40
2018-01-15T03:47:47.166Z,79.25
2018-01-15T03:50:14.681Z,79.37
2018-01-15T03:52:42.217Z,79.14
2018-01-15T03:55:09.744Z,79.21
2018-01-15T03:57:37.268Z,79.14
2018-01-15T04:00:04.788Z,79.34
2018-01-15T04:02:32.308Z,79.25
2018-01-15T04:04:59.987Z,79.16
2018-01-15T04:07:27.527Z,79.02
2018-01-15T04:09:55.040Z,79.10
2018-01-15T04:12:22.563Z,79.17
2018-01-15T04:14:50.076Z,79.17
2018-01-15T04:17:17.608Z,79.35
2018-01-15T04:19:45.124Z,79.22
2018-01-15T04:22:12.646Z,79.24
2018-01-15T04:24:40.188Z,79.19
2018-01-15T04:27:07.761Z,79.29
2018-01-15T04:29:35.239Z,79.35
2018-01-15T04:32:02.795Z,79.20
2018-01-15T04:34:30.383Z,79.26
2018-01-15T04:36:57.916Z,79.40
2018-01-15T04:39:25.439Z,79.46
2018-01-15T04:41:53.064Z,79.53
2018-01-15T04:44:20.576Z,79.48
2018-01-15T04:46:48.096Z,79.47
2018-01-15T04:49:15.617Z,79.50
2018-01-15T04:51:43.200Z,79.35
2018-01-15T04:54:10.728Z,79.59
2018-01-15T04:56:38.331Z,79.55
2018-01-15T04:59:05.861Z,79.45
2018-01-15T05:01:33.379Z,79.34
2018-01-15T05:04:00.888Z,79.29
2018-01-15T05:06:28.409Z,79.32
2018-01-15T05:08:56.076Z,79.30
2018-01-15T05:11:23.688Z,79.19
2018-01-15T05:13:51.252Z,79.09
2018-01-15T05:16:18.772Z,79.04
2018-01-15T05:18:46.363Z,78.98
2018-01-15T05:21:13.967Z,78.89
2018-01-15T05:23:41.483Z,78.87
2018-01-15T05:26:09.008Z,78.91
2018-01-15T05:28:36.537Z,78.96
2018-01-15T05:31:04.060Z,78.87
2018-01-15T05:33:31.590Z,78.76
2018-01-15T05:35:59.158Z,78.63
2018-01-15T05:38:26.664Z,78.78
2018-01-15T05:40:54.176Z,78.78
2018-01-15T05:43:21.724Z,78.80
2018-01-15T05:45:49.252Z,78.49
2018-01-15T05:48:16.856Z,78.68
2018-01-15T05:50:44.372Z,78.80
2018-01-15T05:53:11.881Z,78.85
2018-01-15T05:55:39.419Z,78.90
2018-01-15T05:58:07.031Z,78.90
2018-01-15T06:00:34.544Z,78.91
2018-01-15T06:03:02.138Z,78.95
2018-01-15T06:05:29.697Z,78.80
2018-01-15T06:07:57.220Z,78.83
2018-01-15T06:10:24.732Z,78.78
2018-01-15T06:12:52.243Z,78.77
2018-01-15T06:15:19.833Z,78.78
2018-01-15T06:17:47.353Z,78.82
2018-01-15T06:20:14.951Z,78.80
2018-01-15T06:22:42.459Z,78.86
2018-01-15T06:25:09.982Z,78.86
2018-01-15T06:27:37.542Z,78.86
2018-01-15T06:30:05.062Z,79.62
2018-01-15T06:32:32.604Z,79.04
2018-01-15T06:35:00.212Z,79.19
2018-01-15T06:37:27.740Z,79.20
2018-01-15T06:39:55.564Z,79.28
2018-01-15T06:42:23.080Z,79.38
2018-01-15T06:44:50.608Z,79.32
2018-01-15T06:47:18.119Z,79.46
2018-01-15T06:49:45.632Z,79.51
2018-01-15T06:52:13.252Z,79.67
2018-01-15T06:54:40.800Z,79.68
2018-01-15T06:57:08.313Z,79.75
2018-01-15T06:59:35.926Z,79.83
2018-01-15T07:02:03.478Z,79.92
2018-01-15T07:04:30.992Z,79.96
2018-01-15T07:06:58.596Z,79.88
2018-01-15T07:09:26.124Z,80.01
2018-01-15T07:11:53.727Z,80.08
2018-01-15T07:14:21.256Z,80.09
2018-01-15T07:16:48.840Z,80.25
2018-01-15T07:19:16.395Z,80.24
2018-01-15T07:21:43.913Z,80.24
2018-01-15T07:24:11.464Z,80.25
2018-01-15T07:26:38.976Z,80.33
2018-01-15T07:29:06.509Z,80.47
2018-01-15T07:31:34.113Z,80.45
2018-01-15T07:34:01.624Z,80.47
2018-01-15T07:36:29.154Z,80.57
2018-01-15T07:38:56.674Z,80.73
2018-01-15T07:41:24.205Z,80.65
2018-01-15T07:43:51.729Z,80.58
2018-01-15T07:46:19.249Z,80.62
2018-01-15T07:48:46.813Z,80.79
2018-01-15T07:51:14.328Z,80.73
2018-01-15T07:53:41.940Z,80.71
2018-01-15T07:56:09.468Z,80.68
2018-01-15T07:58:37.061Z,80.74
2018-01-15T08:01:04.576Z,80.61
2018-01-15T08:03:32.096Z,80.54
2018-01-15T08:05:59.633Z,80.39
2018-01-15T08:08:27.144Z,80.33
2018-01-15T08:10:54.748Z,80.13
2018-01-15T08:13:22.318Z,79.99
2018-01-15T08:15:49.824Z,80.02
2018-01-15T08:18:17.429Z,79.85
2018-01-15T08:20:45.013Z,79.85
2018-01-15T08:23:12.599Z,79.89
2018-01-15T08:25:40.097Z,79.66
2018-01-15T08:28:07.612Z,79.37
2018-01-15T08:30:35.237Z,79.33
2018-01-15T08:33:02.764Z,79.22
2018-01-15T08:35:30.358Z,79.35
2018-01-15T08:37:57.905Z,78.92
2018-01-15T08:40:25.414Z,78.75
2018-01-15T08:42:52.946Z,78.56
2018-01-15T08:45:20.472Z,78.07
2018-01-15T08:47:47.997Z,77.87
2018-01-15T08:50:15.531Z,77.52
2018-01-15T08:52:43.063Z,77.23
2018-01-15T08:55:10.577Z,76.79
2018-01-15T08:57:38.108Z,76.30
2018-01-15T09:00:05.624Z,76.00
2018-01-15T09:02:33.151Z,75.48
2018-01-15T09:05:00.674Z,74.45
2018-01-15T09:07:28.210Z,74.85
2018-01-15T09:09:55.721Z,73.77
2018-01-15T09:12:23.252Z,73.38
2018-01-15T09:14:50.784Z,72.89
2018-01-15T09:17:18.370Z,72.48
2018-01-15T09:19:45.930Z,71.97
2018-01-15T09:22:13.442Z,72.02
2018-01-15T09:24:40.967Z,71.57
2018-01-15T09:27:08.478Z,71.00
2018-01-15T09:29:36.017Z,70.46
2018-01-15T09:32:03.583Z,70.01
2018-01-15T09:34:31.160Z,70.47
2018-01-15T09:36:58.676Z,69.73
2018-01-15T09:39:26.192Z,68.89
2018-01-15T09:41:53.701Z,68.82
2018-01-15T09:44:21.219Z,68.31
2018-01-15T09:46:48.733Z,68.23
2018-01-15T09:49:16.287Z,67.47
2018-01-15T09:51:43.795Z,67.58
2018-01-15T09:54:11.344Z,66.57
2018-01-15T09:56:38.852Z,66.11
2018-01-15T09:59:06.374Z,65.55
2018-01-15T10:01:33.906Z,66.33
2018-01-15T10:04:01.432Z,66.26
2018-01-15T10:06:28.940Z,67.28
2018-01-15T10:08:56.450Z,65.40
2018-01-15T10:11:24.070Z,65.46
2018-01-15T10:13:51.630Z,66.29
2018-01-15T10:16:19.293Z,65.61
2018-01-15T10:18:46.820Z,65.62
2018-01-15T10:21:14.341Z,65.70
2018-01-15T10:23:41.870Z,66.36
2018-01-15T10:26:09.430Z,66.36
2018-01-15T10:28:36.997Z,65.69
2018-01-15T10:31:04.520Z,65.82
2018-01-15T10:33:32.081Z,66.26
2018-01-15T10:35:59.667Z,65.89
2018-01-15T10:38:27.184Z,65.61
2018-01-15T10:40:54.715Z,66.22
2018-01-15T10:43:22.243Z,65.93
2018-01-15T10:45:49.802Z,67.01
2018-01-15T10:48:17.360Z,67.18
2018-01-15T10:50:44.871Z,67.52
2018-01-15T10:53:12.495Z,67.61
2018-01-15T10:55:40.009Z,67.27
2018-01-15T10:58:07.527Z,67.29
2018-01-15T11:00:40.776Z,67.39
2018-01-15T11:03:08.284Z,66.63
2018-01-15T11:05:35.807Z,67.10
2018-01-15T11:08:03.319Z,66.88
2018-01-15T11:10:30.928Z,66.99
2018-01-15T11:12:58.497Z,67.14
2018-01-15T11:15:26.026Z,67.01
2018-01-15T11:17:53.608Z,66.57
2018-01-15T11:20:21.148Z,66.82
2018-01-15T11:22:48.694Z,66.40
2018-01-15T11:25:16.253Z,66.42
2018-01-15T11:27:43.769Z,66.49
2018-01-15T11:30:11.275Z,66.02
2018-01-15T11:32:38.808Z,66.34
2018-01-15T11:35:06.424Z,66.23
2018-01-15T11:37:33.940Z,65.70
2018-01-15T11:40:01.444Z,65.63
2018-01-15T11:42:29.012Z,65.46
2018-01-15T11:44:56.525Z,65.45
2018-01-15T11:47:24.037Z,65.57
2018-01-15T11:49:51.580Z,65.37
2018-01-15T11:52:19.110Z,65.06
2018-01-15T11:54:46.640Z,65.18
2018-01-15T11:57:14.157Z,65.05
2018-01-15T11:59:41.672Z,64.93
2018-01-15T12:02:09.280Z,64.76
2018-01-15T12:04:36.804Z,65.04
2018-01-15T12:07:04.399Z,64.96
2018-01-15T12:09:31.909Z,64.57
2018-01-15T12:11:59.429Z,64.75
2018-01-15T12:14:26.946Z,64.74
2018-01-15T12:16:54.549Z,64.61
2018-01-15T12:19:22.120Z,64.80
2018-01-15T12:21:49.665Z,65.05
2018-01-15T12:24:17.184Z,64.64
2018-01-15T12:26:44.736Z,64.75
2018-01-15T12:29:12.368Z,64.67
2018-01-15T12:31:40.013Z,64.70
2018-01-15T12:34:07.568Z,64.61
2018-01-15T12:36:35.080Z,64.51
2018-01-15T12:39:03.413Z,64.71
2018-01-15T12:41:30.970Z,65.04
2018-01-15T12:43:58.491Z,64.90
2018-01-15T12:46:26.028Z,64.26
2018-01-15T12:48:53.668Z,64.24
2018-01-15T12:51:21.312Z,64.15
2018-01-15T12:53:48.842Z,64.21
2018-01-15T12:56:16.426Z,63.89
2018-01-15T12:58:43.991Z,63.61
2018-01-15T13:01:11.536Z,63.60
2018-01-15T13:03:39.065Z,63.34
2018-01-15T13:06:07.431Z,63.27
2018-01-15T13:11:44.281Z,63.09
2018-01-15T13:14:11.795Z,63.30
2018-01-15T13:16:39.304Z,63.46
2018-01-15T13:19:06.884Z,63.75
2018-01-15T13:21:34.396Z,63.55
2018-01-15T13:24:01.906Z,63.64
2018-01-15T13:26:29.429Z,63.57
2018-01-15T13:28:56.941Z,63.63
2018-01-15T13:31:24.447Z,63.63
2018-01-15T13:33:51.959Z,63.63
2018-01-15T13:36:19.472Z,63.37
2018-01-15T13:38:46.989Z,63.46
2018-01-15T13:41:14.593Z,63.51
2018-01-15T13:43:42.159Z,63.60
2018-01-15T13:46:09.682Z,63.61
2018-01-15T13:48:37.213Z,63.74
2018-01-15T13:51:04.724Z,63.60
2018-01-15T13:53:32.244Z,63.60
2018-01-15T13:55:59.779Z,63.92
2018-01-15T13:58:27.297Z,63.78
2018-01-15T14:00:54.859Z,63.88
2018-01-15T14:03:22.420Z,63.79
2018-01-15T14:05:49.980Z,63.92
2018-01-15T14:08:17.540Z,63.96
2018-01-15T14:10:45.101Z,64.12
2018-01-15T14:13:12.614Z,64.23
2018-01-15T14:15:40.221Z,64.32
2018-01-15T14:18:07.780Z,64.42
2018-01-15T14:20:35.354Z,64.55
2018-01-15T14:23:02.908Z,64.66
2018-01-15T14:25:30.461Z,64.89
2018-01-15T14:27:57.993Z,64.85
2018-01-15T14:30:25.520Z,65.08
2018-01-15T14:32:53.031Z,65.01
2018-01-15T14:35:20.540Z,65.07
2018-01-15T14:37:48.156Z,65.11
2018-01-15T14:40:15.680Z,65.13
2018-01-15T14:42:43.280Z,65.31
2018-01-15T14:45:10.808Z,65.26
2018-01-15T14:47:38.406Z,65.31
2018-01-15T14:50:05.956Z,65.53
2018-01-15T14:52:33.486Z,65.58
2018-01-15T14:55:01.077Z,65.73
2018-01-15T14:57:28.636Z,65.69
2018-01-15T14:59:56.200Z,65.71
2018-01-15T15:02:23.722Z,65.42
2018-01-15T15:04:51.285Z,65.63
2018-01-15T15:07:18.812Z,65.65
2018-01-15T15:09:46.437Z,65.84
2018-01-15T15:12:13.964Z,65.97
2018-01-15T15:14:41.492Z,66.20
2018-01-15T15:17:09.013Z,66.18
2018-01-15T15:19:36.524Z,66.36
2018-01-15T15:22:04.033Z,66.31
2018-01-15T15:24:31.594Z,66.45
2018-01-15T15:26:59.128Z,66.44
2018-01-15T15:29:26.712Z,66.49
2018-01-15T15:31:54.272Z,66.54
2018-01-15T15:34:21.784Z,66.53
2018-01-15T15:36:49.375Z,66.52
2018-01-15T15:39:16.893Z,66.61
2018-01-15T15:41:44.420Z,66.69
2018-01-15T15:44:11.968Z,67.03
2018-01-15T15:46:39.475Z,67.11
2018-01-15T15:49:06.988Z,67.15
2018-01-15T15:51:34.501Z,67.20
2018-01-15T15:54:02.053Z,67.30
2018-01-15T15:56:29.564Z,67.40
2018-01-15T15:58:57.243Z,67.39
2018-01-15T16:01:24.784Z,67.39
2018-01-15T16:03:52.344Z,67.53
2018-01-15T16:06:19.923Z,67.62
2018-01-15T16:08:47.445Z,67.63
2018-01-15T16:11:15.031Z,67.58
2018-01-15T16:13:42.555Z,67.70
2018-01-15T16:16:10.077Z,67.74
2018-01-15T16:18:37.592Z,67.74
2018-01-15T16:21:05.112Z,67.80
2018-01-15T16:23:32.639Z,67.88
2018-01-15T16:26:00.169Z,67.89
2018-01-15T16:28:27.699Z,68.00
2018-01-15T16:30:55.221Z,67.95
2018-01-15T16:33:22.757Z,68.07
2018-01-15T16:35:50.276Z,68.17
2018-01-15T16:38:17.881Z,68.26
2018-01-15T16:40:45.459Z,68.29
2018-01-15T16:43:13.005Z,68.46
2018-01-15T16:45:40.574Z,68.40
2018-01-15T16:48:08.101Z,68.54
2018-01-15T16:50:35.661Z,68.66
2018-01-15T16:53:03.185Z,68.71
2018-01-15T16:55:30.699Z,68.78
2018-01-15T16:57:58.269Z,68.81
2018-01-15T17:00:25.797Z,68.75
2018-01-15T17:02:53.312Z,68.78
2018-01-15T17:05:20.938Z,68.49
2018-01-15T17:07:48.478Z,68.63
2018-01-15T17:10:15.992Z,68.49
2018-01-15T17:12:43.500Z,68.26
2018-01-15T17:15:11.044Z,68.39
2018-01-15T17:17:38.632Z,68.41
2018-01-15T17:20:06.220Z,68.37
2018-01-15T17:22:33.761Z,68.22
2018-01-15T17:25:01.330Z,68.30
2018-01-15T17:27:28.852Z,68.26
2018-01-15T17:29:56.437Z,68.39
2018-01-15T17:32:23.943Z,68.27
2018-01-15T17:34:51.610Z,68.25
2018-01-15T17:37:19.106Z,68.21
2018-01-15T17:39:46.623Z,68.20
2018-01-15T17:42:14.156Z,68.19
2018-01-15T17:44:41.675Z,68.05
2018-01-15T17:47:09.187Z,68.04
2018-01-15T17:49:36.692Z,68.01
2018-01-15T17:52:04.216Z,67.92
2018-01-15T17:54:31.742Z,67.90
2018-01-15T17:56:59.257Z,67.87
2018-01-15T17:59:26.794Z,68.06
2018-01-15T18:01:54.315Z,67.97
2018-01-15T18:04:21.884Z,67.93
2018-01-15T18:06:49.392Z,67.94
2018-01-15T18:09:17.006Z,68.04
2018-01-15T18:11:44.532Z,67.99
2018-01-15T18:14:12.048Z,67.85
2018-01-15T18:16:39.679Z,67.81
2018-01-15T18:19:07.221Z,67.70
2018-01-15T18:21:34.744Z,67.83
2018-01-15T18:24:02.256Z,67.80
2018-01-15T18:26:29.831Z,67.89
2018-01-15T18:28:57.375Z,67.72
2018-01-15T18:31:24.936Z,67.71
2018-01-15T18:33:52.456Z,67.84
2018-01-15T18:36:19.988Z,67.97
2018-01-15T18:38:47.521Z,67.83
2018-01-15T18:41:15.027Z,68.09
2018-01-15T18:43:42.636Z,68.17
2018-01-15T18:46:10.148Z,68.19
2018-01-15T18:48:37.682Z,68.26
2018-01-15T18:51:05.321Z,68.47
2018-01-15T18:53:32.831Z,68.42
2018-01-15T18:56:00.358Z,68.32
2018-01-15T18:58:27.981Z,68.44
2018-01-15T19:00:55.509Z,68.33
2018-01-15T19:03:23.062Z,68.25
2018-01-15T19:05:50.603Z,68.17
2018-01-15T19:08:18.161Z,68.36
2018-01-15T19:10:45.794Z,68.13
2018-01-15T19:13:13.320Z,68.26
2018-01-15T19:15:40.860Z,68.38
2018-01-15T19:18:08.472Z,68.39
2018-01-15T19:20:36.001Z,68.34
2018-01-15T19:23:03.549Z,68.41
2018-01-15T19:25:31.085Z,68.37
2018-01-15T19:27:58.611Z,68.39
2018-01-15T19:30:26.130Z,68.18
2018-01-15T19:32:53.657Z,68.30
2018-01-15T19:35:22.008Z,68.26
2018-01-15T19:37:49.544Z,68.37
2018-01-15T19:40:17.068Z,68.35
2018-01-15T19:42:44.585Z,68.43
2018-01-15T19:45:17.877Z,68.46
2018-01-15T19:47:50.944Z,68.47
2018-01-15T19:50:24.104Z,68.61
2018-01-15T19:52:57.342Z,68.75
2018-01-15T19:55:30.743Z,68.66
2018-01-15T19:58:03.756Z,68.68
2018-01-15T20:00:36.834Z,68.87
2018-01-15T20:03:10.119Z,68.73
2018-01-15T20:05:43.173Z,68.62
2018-01-15T20:08:16.369Z,68.57
2018-01-15T20:10:47.025Z,68.52
2018-01-15T20:13:14.532Z,68.57
2018-01-15T20:15:42.059Z,68.47
2018-01-15T20:18:09.579Z,68.45
2018-01-15T20:20:37.129Z,68.35
2018-01-15T21:45:01.704Z,67.20
2018-01-15T21:47:29.208Z,67.14
2018-01-15T21:49:56.718Z,67.50
2018-01-15T21:52:24.277Z,67.14
2018-01-15T21:54:51.873Z,67.31
2018-01-15T21:57:19.461Z,67.15
2018-01-15T21:59:47.005Z,67.22
2018-01-15T22:02:14.564Z,67.08
2018-01-15T22:04:42.077Z,67.04
2018-01-15T22:07:09.770Z,67.11
2018-01-15T22:09:37.283Z,67.19
2018-01-15T22:12:04.808Z,67.11
2018-01-15T22:14:32.366Z,67.31
2018-01-15T22:16:59.910Z,67.25
2018-01-15T22:19:27.571Z,67.38
2018-01-15T22:21:55.127Z,67.26
2018-01-15T22:24:22.682Z,67.01
2018-01-15T22:26:50.215Z,67.26
2018-01-15T22:29:17.796Z,67.23
2018-01-15T22:31:45.348Z,67.44
2018-01-15T22:34:12.857Z,68.06
2018-01-15T22:36:40.370Z,68.72
2018-01-15T22:39:07.932Z,69.48
2018-01-15T22:41:35.457Z,70.02
2018-01-15T22:44:02.972Z,70.56
2018-01-15T22:46:30.477Z,70.81
2018-01-15T22:48:57.996Z,70.75
2018-01-15T22:51:25.524Z,70.41
2018-01-15T22:53:53.033Z,70.25
2018-01-15T22:56:20.660Z,70.20
2018-01-15T22:58:48.233Z,70.20
2018-01-15T23:01:15.739Z,70.48
2018-01-15T23:03:43.265Z,70.72
2018-01-15T23:06:10.846Z,71.05
2018-01-15T23:08:38.431Z,71.46
2018-01-15T23:11:06.018Z,71.77
2018-01-15T23:13:33.583Z,72.06
2018-01-15T23:16:01.149Z,72.27
2018-01-15T23:18:28.665Z,72.36
2018-01-15T23:20:56.181Z,72.68
2018-01-15T23:23:23.827Z,73.05
2018-01-15T23:25:51.376Z,72.82
2018-01-15T23:28:18.900Z,73.06
2018-01-15T23:30:46.496Z,73.62
2018-01-15T23:33:14.017Z,74.13
2018-01-15T23:35:41.529Z,74.38
2018-01-15T23:38:09.037Z,74.87
2018-01-15T23:40:36.548Z,75.35
2018-01-15T23:43:04.062Z,75.72
2018-01-15T23:45:31.613Z,76.19
2018-01-15T23:47:59.125Z,76.26
2018-01-15T23:50:26.633Z,76.78
2018-01-15T23:52:54.219Z,76.91
2018-01-15T23:55:21.728Z,76.96
2018-01-15T23:57:49.237Z,77.21
